Station: Wadeye (Port Keats)  

  Atmospheric Gas Attenuation - ITU Rec 676-11   ----------------- dB/100km -----------------
Date Time Temp RH % AH g/m3 Dew Point Wind Direction Speed kph Gust kph Barometer mB Rainfall Since 9am 24GHz 47GHz 76GHz 122GHz 134GHz 241GHz
08/05 12:00 28.7 37 10.46 12.6 22 33 1013.3 0 22.7 24.6 39.4 103.7 102.4 354.1
08/05 11:50 28.3 37 10.23 12.2 20 24 1013.4 0 22.3 24.3 38.8 102.1 100.2 346.6
08/05 11:40 27.9 38 10.28 12.3 24 30 1013.4 0 22.4 24.5 39.2 103.1 101.3 350.4
08/05 11:30 27.7 38 10.17 12.1 22 30 1013.5 0 22.2 24.4 38.9 102.3 100.3 346.8
08/05 11:20 27.2 38 9.89 11.7 22 28 1013.6 0 21.6 24.2 38.2 100.3 97.7 337.6
08/05 11:10 27 39 10.04 11.9 19 22 1013.8 0 22.0 24.4 38.8 102.0 99.7 344.6
08/05 11:00 26.8 39 9.93 11.7 24 37 1013.9 0 21.7 24.3 38.5 101.2 98.7 341.0
08/05 10:50 26.7 38 9.62 11.2 30 35 1013.9 0 21.1 23.9 37.5 98.4 95.2 328.9
08/05 10:40 26.9 40 10.24 12.2 28 33 1014 0 22.4 24.8 39.6 104.0 102.2 353.2
08/05 10:30 26.6 40 10.07 11.9 24 37 1014.2 0 22.0 24.6 39.1 102.8 100.6 347.6
08/05 10:20 26.2 41 10.09 11.9 22 26 1014.2 0 22.1 24.7 39.4 103.5 101.3 350.2
08/05 10:10 25.6 42 10 11.7 28 32 1014.3 0 22.0 24.8 39.3 103.4 101.0 349.1
08/05 10:00 25.9 43 10.41 12.4 24 37 1014.4 0 22.8 25.3 40.7 107.0 105.5 364.8
08/05 09:50 25.2 42 9.78 11.4 28 32 1014.3 0 21.5 24.6 38.8 101.8 98.9 341.7
08/05 09:40 24.9 44 10.07 11.8 22 24 1014.2 0 22.1 25.1 39.9 105.0 102.7 355.0
08/05 09:30 24.8 44 10.02 11.7 22 33 1014.2 0 22.0 25.0 39.8 104.6 102.3 353.4
08/05 09:20 24.1 45 9.85 11.4 24 28 1014.2 0 21.7 25.0 39.5 103.9 101.1 349.3
08/05 09:10 23.9 44 9.52 11.2 20 22 1014.2 0 21.0 24.5 38.4 100.9 97.4 336.3
08/05 09:00 23.6 46 9.78 11.3 24 32 1014 0 21.6 25.0 39.5 103.8 100.9 348.5
08/05 08:50 23.4 47 9.88 11.5 22 28 1014 0 21.8 25.2 40.0 105.0 102.4 353.6
08/05 08:40 23.1 47 9.71 11.2 22 26 1014.1 0 21.5 25.0 39.5 103.8 100.7 347.7
08/05 08:30 22.9 47 9.6 11 20 30 1014 0 21.3 24.9 39.2 102.9 99.6 343.9
08/05 08:20 22.7 48 9.7 11.1 17 20 1013.9 0 21.5 25.1 39.6 104.2 101.1 348.9
08/05 08:10 22.4 49 9.73 11.2 22 28 1013.8 0 21.6 25.2 39.9 104.8 101.8 351.5
08/05 08:00 22.1 49 9.56 10.9 20 30 1013.7 0 21.2 25.1 39.4 103.5 100.1 345.5
08/05 07:50 21.8 49 9.4 10.6 19 20 1013.6 0 20.9 24.9 39.0 102.3 98.5 339.9
08/05 07:40 21.6 50 9.48 10.7 20 26 1013.4 0 21.1 25.1 39.3 103.4 99.7 344.2
08/05 07:30 21.3 50 9.32 10.5 20 26 1013.4 0 20.7 24.9 38.9 102.2 98.2 338.6
08/05 07:20 21.1 50 9.21 10.3 19 24 1013.3 0 20.5 24.8 38.6 101.3 97.0 334.7
08/05 07:10 20.9 51 9.29 10.4 20 24 1013.2 0 20.7 25.0 39.0 102.3 98.3 338.9
08/05 07:00 20.9 50 9.11 10.1 19 26 1013.2 0 20.3 24.7 38.3 100.6 96.1 331.2
08/05 06:50 21 50 9.16 10.2 17 20 1013 0 20.4 24.7 38.4 100.9 96.5 332.9
08/05 06:40 21.1 50 9.21 10.3 20 24 1012.9 0 20.5 24.8 38.6 101.3 97.0 334.6
08/05 06:30 21 50 9.16 10.2 19 28 1012.9 0 20.4 24.7 38.4 100.9 96.5 332.8
08/05 06:20 21.1 49 9.03 10 19 22 1012.8 0 20.1 24.5 37.9 99.5 94.8 326.9
08/05 06:10 21.1 49 9.03 10 19 20 1012.8 0 20.1 24.5 37.9 99.5 94.8 326.9
08/05 06:00 21.1 49 9.03 10 15 17 1012.9 0 20.1 24.5 37.9 99.5 94.8 326.9
08/05 05:50 21.1 49 9.03 10 15 20 1012.9 0 20.1 24.5 37.9 99.5 94.8 326.9
08/05 05:40 21.2 48 8.89 9.8 17 20 1012.8 0 19.8 24.3 37.3 98.0 93.0 320.5
08/05 05:30 21.4 48 9 9.9 17 24 1012.8 0 20.1 24.4 37.6 98.8 94.1 324.4
08/05 05:20 21.3 48 8.95 9.9 13 17 1012.8 0 20.0 24.3 37.5 98.4 93.6 322.7
08/05 05:10 21.6 47 8.91 9.8 13 17 1012.8 0 19.9 24.2 37.2 97.7 92.8 319.8
08/05 05:00 21.7 47 8.96 9.9 17 24 1012.7 0 20.0 24.2 37.4 98.0 93.3 321.5
08/05 04:50 21.8 47 9.02 10 15 20 1012.7 0 20.1 24.3 37.5 98.5 93.9 323.6
08/05 04:40 22 46 8.93 9.9 19 24 1012.6 0 19.9 24.1 37.1 97.4 92.5 319.0
08/05 04:30 22.1 46 8.98 9.9 19 26 1012.6 0 20.0 24.2 37.2 97.7 93.0 320.7
08/05 04:20 22.1 46 8.98 9.9 19 24 1012.7 0 20.0 24.2 37.2 97.8 93.0 320.7
08/05 04:10 22.3 45 8.89 9.8 22 26 1012.8 0 19.8 24.0 36.8 96.7 91.7 316.2
08/05 04:00 22.3 45 8.89 9.8 17 24 1012.8 0 19.8 24.0 36.8 96.7 91.7 316.2
08/05 03:50 22.3 45 8.89 9.8 17 20 1012.8 0 19.8 24.0 36.8 96.7 91.7 316.2
08/05 03:40 22.3 46 9.08 10.1 15 22 1012.8 0 20.2 24.3 37.5 98.5 94.0 324.1
08/05 03:30 22.4 45 8.94 9.9 19 30 1012.8 0 19.9 24.0 37.0 97.0 92.2 317.9
08/05 03:20 22.6 45 9.04 10.1 19 24 1012.8 0 20.1 24.1 37.2 97.7 93.2 321.3
08/05 03:10 22.6 45 9.04 10.1 20 26 1012.9 0 20.1 24.1 37.2 97.7 93.2 321.3
08/05 03:00 22.8 44 8.94 9.9 19 32 1012.9 0 19.9 23.9 36.8 96.5 91.8 316.3
08/05 02:50 23 44 9.04 10.1 17 22 1013 0 20.1 24.0 37.1 97.3 92.7 319.7
08/05 02:40 23 44 9.04 10.1 22 26 1013.1 0 20.1 24.0 37.1 97.3 92.7 319.7
08/05 02:30 23.1 43 8.89 9.8 19 26 1013.2 0 19.8 23.8 36.5 95.7 90.8 313.2
08/05 02:20 23.1 43 8.89 9.8 22 28 1013.2 0 19.8 23.8 36.5 95.7 90.8 313.2
08/05 02:10 23.2 43 8.94 9.9 19 22 1013.4 0 19.9 23.8 36.6 96.1 91.3 314.9
08/05 02:00 23.2 43 8.94 9.9 20 30 1013.4 0 19.9 23.8 36.6 96.1 91.3 314.9
08/05 01:50 23.2 44 9.15 10.3 17 26 1013.6 0 20.3 24.1 37.4 98.2 93.8 323.6
08/05 01:40 23.3 44 9.2 10.4 17 20 1013.6 0 20.4 24.2 37.5 98.5 94.3 325.3
08/05 01:30 22.7 47 9.5 10.8 13 19 1013.8 0 21.1 24.8 38.9 102.2 98.6 340.4
08/05 01:20 23 46 9.45 10.8 17 19 1013.8 0 20.9 24.6 38.6 101.3 97.7 337.1
08/05 01:10 22.8 47 9.55 10.9 11 15 1014 0 21.2 24.9 39.1 102.6 99.1 342.2
08/05 01:00 22.7 47 9.5 10.8 9 15 1014 0 21.1 24.8 38.9 102.2 98.7 340.5
08/05 00:50 23.1 45 9.3 10.5 11 15 1014.2 0 20.6 24.4 38.0 99.8 95.8 330.5
08/05 00:40 23.4 44 9.25 10.5 11 15 1014.2 0 20.5 24.3 37.7 98.9 94.8 327.2
08/05 00:30 23.6 44 9.36 10.6 13 19 1014.2 0 20.7 24.4 38.0 99.7 95.9 330.9
08/05 00:20 23.7 43 9.2 10.4 17 20 1014.3 0 20.4 24.1 37.4 98.1 93.9 323.9
08/05 00:10 23.7 44 9.41 10.7 11 15 1014.3 0 20.8 24.4 38.1 100.1 96.4 332.6
08/05 00:00 23.6 45 9.57 11 13 24 1014.4 0 21.2 24.7 38.8 101.8 98.4 339.7
07/05 23:50 23.4 46 9.67 11.1 15 19 1014.4 0 21.4 24.9 39.2 103.0 99.9 344.8
07/05 23:40 23.1 48 9.92 11.5 13 17 1014.4 0 21.9 25.3 40.3 105.9 103.3 356.7
07/05 23:30 22.8 51 10.36 12.1 9 15 1014.5 0 22.9 26.1 42.1 110.7 109.1 377.1
07/05 23:20 23 49 10.07 11.7 11 13 1014.5 0 22.2 25.6 40.9 107.5 105.2 363.6
07/05 23:10 22.6 51 10.24 12 11 15 1014.5 0 22.6 26.0 41.7 109.7 107.9 372.8
07/05 23:00 22.5 52 10.39 12.2 7 15 1014.6 0 22.9 26.2 42.4 111.4 109.9 379.8
07/05 22:50 22.7 50 10.1 12 7 9 1014.5 0 22.3 25.7 41.2 108.2 106.0 366.3
07/05 22:40 22.4 51 10.13 11.8 4 7 1014.4 0 22.4 25.9 41.4 108.9 106.8 368.9
07/05 22:30 22.6 52 10.45 12.3 9 13 1014.5 0 23.1 26.3 42.5 111.9 110.5 381.9
07/05 22:20 23.1 48 9.92 11.5 7 13 1014.4 0 21.9 25.3 40.3 105.9 103.3 356.7
07/05 22:10 22.9 49 10.01 11.6 9 11 1014.4 0 22.1 25.5 40.7 107.0 104.6 361.5
07/05 22:00 22.7 50 10.1 12 7 13 1014.4 0 22.3 25.7 41.2 108.2 106.0 366.2
07/05 21:50 23.1 49 10.13 11.8 9 11 1014.4 0 22.4 25.7 41.1 108.0 105.8 365.7
07/05 21:40 23.2 49 10.19 11.9 7 9 1014.4 0 22.5 25.7 41.2 108.4 106.4 367.8
07/05 21:30 23.2 49 10.19 11.9 7 13 1014.4 0 22.5 25.7 41.2 108.4 106.4 367.8
07/05 21:20 23.4 48 10.09 11.8 7 9 1014.4 0 22.3 25.5 40.8 107.2 105.0 362.6
07/05 21:10 23.9 46 9.95 11.6 7 11 1014.3 0 21.9 25.2 40.0 105.1 102.6 354.4
07/05 21:00 24 46 10.01 11.7 9 13 1014.2 0 22.1 25.2 40.2 105.6 103.2 356.5
07/05 20:50 24 45 9.79 11.3 7 9 1014.1 0 21.6 24.9 39.4 103.4 100.5 347.2
07/05 20:40 24 45 9.79 11.3 7 9 1014.1 0 21.6 24.9 39.4 103.4 100.5 347.2
07/05 20:30 24 46 10.01 11.7 7 13 1013.9 0 22.1 25.2 40.2 105.5 103.1 356.4
07/05 20:20 24 47 10.23 12 7 11 1013.8 0 22.5 25.5 41.0 107.7 105.8 365.7
07/05 20:10 24 46 10.01 11.7 9 11 1013.6 0 22.1 25.2 40.1 105.5 103.1 356.3
07/05 20:00 24.1 45 9.85 11.4 7 11 1013.5 0 21.7 24.9 39.5 103.8 101.1 349.1
07/05 19:50 24.2 44 9.68 11.2 7 9 1013.3 0 21.4 24.6 38.8 102.0 98.9 341.5
07/05 19:40 24.3 44 9.74 11.3 7 9 1013.2 0 21.5 24.7 39.0 102.4 99.5 343.5
07/05 19:30 23.8 47 10.11 11.8 7 9 1013.1 0 22.3 25.4 40.6 106.7 104.6 361.3

Last Refresh: 08-May-2026 12:07:21

Bureau of Meteorology